Time;durP1;ratioP1;P1;durP2;ratioP2;P2;SDS_P1;SDS_P2;PMS_P1;PMS_P2;Temp;Humidity;BMP_temperature;BMP_pressure;BME280_temperature;BME280_humidity;BME280_pressure;Samples;Min_cycle;Max_cycle;Signal;HPM_P1;HPM_P2
2022/03/25 00:01:31;;;;;;;;;;;;;;;14.81;23.34;100434.25;4488562;31;34626;-61
2022/03/25 00:03:59;;;;;;;;;;;;;;;14.78;23.50;100438.03;4487676;31;33991;-61
2022/03/25 00:06:27;;;;;;;;;;;;;;;14.98;23.00;100433.69;4486206;31;34279;-62
2022/03/25 00:08:55;;;;;;;;;;;;;;;14.71;23.33;100434.13;4485336;31;33459;-61
2022/03/25 00:11:23;;;;;;;;;;;;;;;14.67;23.54;100429.97;4499628;31;34666;-61
2022/03/25 00:13:50;;;;;;;;;;;;;;;14.52;23.81;100434.75;4490676;31;34469;-61
2022/03/25 00:16:18;;;;;;;;;;;;;;;14.44;23.46;100427.25;4486094;31;34310;-61
2022/03/25 00:18:46;;;;;;;;;;;;;;;14.13;24.55;100430.69;4483344;31;34722;-60
2022/03/25 00:21:14;;;;;;;;;;;;;;;14.29;24.20;100424.94;4485586;31;34413;-61
2022/03/25 00:23:41;;;;;;;;;;;;;;;14.09;24.80;100430.06;4482114;31;35903;-61
2022/03/25 00:26:09;;;;;;;;;;;;;;;14.06;24.78;100437.50;4498901;31;34263;-62
2022/03/25 00:28:37;;;;;;;;;;;;;;;14.05;24.96;100425.03;4486985;31;33871;-62
2022/03/25 00:31:09;;;;;;;;;;;;;;;14.09;24.98;100419.28;4487500;31;34250;-62
2022/03/25 00:33:37;;;;;;;;;;;;;;;13.95;25.19;100430.28;4486816;31;35158;-61
2022/03/25 00:36:09;;;;;;;;;;;;;;;13.96;25.11;100427.47;4490245;31;35318;-62
2022/03/25 00:38:37;;;;;;;;;;;;;;;13.83;25.55;100432.06;4495436;31;33697;-63
2022/03/25 00:41:07;;;;;;;;;;;;;;;13.86;25.24;100434.53;4485165;31;32841;-61
2022/03/25 00:43:35;;;;;;;;;;;;;;;13.93;25.20;100430.41;4491855;31;33557;-61
2022/03/25 00:46:04;;;;;;;;;;;;;;;13.87;25.33;100428.19;4492407;31;35041;-61
2022/03/25 00:48:32;;;;;;;;;;;;;;;13.95;25.16;100423.06;4476379;31;33428;-61
2022/03/25 00:51:01;;;;;;;;;;;;;;;14.21;24.70;100420.16;4479166;31;33947;-61
2022/03/25 00:53:31;;;;;;;;;;;;;;;14.05;25.13;100425.88;4478083;31;33429;-61
2022/03/25 00:56:03;;;;;;;;;;;;;;;13.43;25.93;100431.59;4477698;31;33184;-61
2022/03/25 00:58:32;;;;;;;;;;;;;;;13.66;25.78;100428.00;4484785;31;33149;-60
2022/03/25 01:01:02;;;;;;;;;;;;;;;13.59;25.58;100426.75;4488577;31;33706;-61
2022/03/25 01:03:32;;;;;;;;;;;;;;;13.72;25.81;100430.22;4476542;31;33129;-61
2022/03/25 01:06:02;;;;;;;;;;;;;;;13.43;26.42;100426.22;4479716;31;32963;-60
2022/03/25 01:08:29;;;;;;;;;;;;;;;13.62;25.81;100422.97;4479651;31;34860;-61
2022/03/25 01:11:04;;;;;;;;;;;;;;;13.53;26.40;100421.84;4478132;31;34020;-62
2022/03/25 01:13:34;;;;;;;;;;;;;;;13.69;25.63;100418.84;4490127;31;33845;-62
2022/03/25 01:16:05;;;;;;;;;;;;;;;13.56;25.87;100415.38;4482748;31;34765;-62
2022/03/25 01:18:37;;;;;;;;;;;;;;;13.77;25.67;100421.78;4476721;31;33123;-61
2022/03/25 01:21:05;;;;;;;;;;;;;;;13.92;25.58;100417.06;4476216;31;34683;-61
2022/03/25 01:23:34;;;;;;;;;;;;;;;13.85;25.68;100416.69;4480516;31;33798;-60
2022/03/25 01:26:04;;;;;;;;;;;;;;;14.00;25.00;100414.62;4481562;31;33893;-61
2022/03/25 01:28:34;;;;;;;;;;;;;;;13.91;25.20;100420.72;4479338;31;34734;-60
2022/03/25 01:31:03;;;;;;;;;;;;;;;13.97;25.04;100415.72;4480155;31;34098;-60
2022/03/25 01:33:38;;;;;;;;;;;;;;;13.86;25.25;100421.06;4477857;31;33728;-60
2022/03/25 01:36:09;;;;;;;;;;;;;;;13.90;25.14;100424.38;4481101;31;34112;-61
2022/03/25 01:38:37;;;;;;;;;;;;;;;13.64;25.53;100429.09;4476204;31;33838;-61
2022/03/25 01:41:06;;;;;;;;;;;;;;;13.42;25.50;100435.28;4481348;31;32787;-61
2022/03/25 01:43:34;;;;;;;;;;;;;;;13.26;25.93;100439.09;4475949;31;35185;-61
2022/03/25 01:46:03;;;;;;;;;;;;;;;13.17;26.42;100439.75;4488229;31;33838;-61
2022/03/25 01:48:32;;;;;;;;;;;;;;;12.80;27.06;100438.91;4488848;31;33288;-62
2022/03/25 01:51:00;;;;;;;;;;;;;;;12.68;27.16;100435.31;4478774;31;35088;-61
2022/03/25 01:53:29;;;;;;;;;;;;;;;12.99;26.91;100441.09;4479604;31;34140;-61
2022/03/25 01:55:58;;;;;;;;;;;;;;;13.06;26.69;100439.69;4477996;31;33146;-61
2022/03/25 01:58:27;;;;;;;;;;;;;;;13.31;25.73;100437.91;4478606;31;32395;-61
2022/03/25 02:00:56;;;;;;;;;;;;;;;13.19;26.08;100445.00;4487428;31;33948;-61
2022/03/25 02:03:24;;;;;;;;;;;;;;;13.22;25.68;100444.78;4476921;31;33189;-60
2022/03/25 02:05:52;;;;;;;;;;;;;;;12.97;26.21;100448.41;4481070;31;34233;-61
2022/03/25 02:08:21;;;;;;;;;;;;;;;12.65;26.69;100443.59;4478909;31;33587;-61
2022/03/25 02:10:50;;;;;;;;;;;;;;;12.61;26.65;100443.91;4483277;31;32933;-60
2022/03/25 02:13:18;;;;;;;;;;;;;;;12.53;27.01;100444.47;4482303;31;34033;-60
2022/03/25 02:15:48;;;;;;;;;;;;;;;12.19;28.19;100444.16;4483143;31;35486;-60
2022/03/25 02:18:20;;;;;;;;;;;;;;;12.35;27.33;100446.63;4477174;31;32482;-60
2022/03/25 02:20:54;;;;;;;;;;;;;;;12.40;27.14;100444.50;4485905;31;32935;-60
2022/03/25 02:23:34;;;;;;;;;;;;;;;12.19;27.47;100454.91;4480653;31;34212;-60
2022/03/25 02:26:05;;;;;;;;;;;;;;;12.00;28.12;100455.31;4492123;31;35394;-60
2022/03/25 02:28:34;;;;;;;;;;;;;;;11.86;28.64;100458.97;4473145;31;33509;-60
2022/03/25 02:31:03;;;;;;;;;;;;;;;12.17;28.17;100461.38;4482069;31;33485;-61
2022/03/25 02:33:32;;;;;;;;;;;;;;;12.27;27.83;100454.37;4479762;31;33850;-60
2022/03/25 02:36:01;;;;;;;;;;;;;;;12.21;27.61;100463.72;4479502;31;34308;-60
2022/03/25 02:38:29;;;;;;;;;;;;;;;12.20;27.58;100459.31;4478558;31;32104;-60
2022/03/25 02:40:59;;;;;;;;;;;;;;;11.94;28.12;100457.56;4490392;31;35179;-60
2022/03/25 02:43:28;;;;;;;;;;;;;;;12.09;27.85;100468.09;4484366;31;33084;-61
2022/03/25 02:46:00;;;;;;;;;;;;;;;12.08;27.94;100471.75;4480612;31;35139;-60
2022/03/25 02:48:31;;;;;;;;;;;;;;;12.17;27.77;100470.28;4482710;31;32268;-61
2022/03/25 02:51:00;;;;;;;;;;;;;;;12.13;27.88;100474.13;4483205;31;34893;-60
2022/03/25 02:53:31;;;;;;;;;;;;;;;12.03;28.23;100473.03;4487871;31;33120;-60
2022/03/25 02:56:00;;;;;;;;;;;;;;;11.82;28.50;100476.22;4484739;31;33146;-60
2022/03/25 02:58:29;;;;;;;;;;;;;;;11.78;28.63;100482.75;4486840;31;33314;-60
2022/03/25 03:00:58;;;;;;;;;;;;;;;11.30;29.69;100487.75;4482134;31;34001;-60
2022/03/25 03:03:27;;;;;;;;;;;;;;;11.14;29.94;100489.72;4491752;31;34876;-60
2022/03/25 03:05:56;;;;;;;;;;;;;;;11.57;29.07;100486.88;4480532;31;34157;-61
2022/03/25 03:08:31;;;;;;;;;;;;;;;11.31;29.47;100489.47;4485599;31;33563;-61
2022/03/25 03:10:59;;;;;;;;;;;;;;;11.44;29.38;100497.56;4486227;31;33658;-61
2022/03/25 03:13:28;;;;;;;;;;;;;;;11.68;28.94;100495.03;4480769;31;34332;-60
2022/03/25 03:15:56;;;;;;;;;;;;;;;11.39;29.52;100491.63;4484315;31;33417;-60
2022/03/25 03:18:25;;;;;;;;;;;;;;;11.52;29.38;100492.53;4477096;31;33198;-61
2022/03/25 03:20:53;;;;;;;;;;;;;;;11.43;29.67;100490.50;4479617;31;35350;-60
2022/03/25 03:23:22;;;;;;;;;;;;;;;11.48;29.50;100499.06;4479824;31;35502;-60
2022/03/25 03:25:50;;;;;;;;;;;;;;;11.72;29.17;100490.34;4486817;31;34455;-60
2022/03/25 03:28:18;;;;;;;;;;;;;;;11.76;29.07;100492.72;4479705;31;33702;-60
2022/03/25 03:30:47;;;;;;;;;;;;;;;11.95;28.90;100491.50;4481212;31;33999;-61
2022/03/25 03:33:15;;;;;;;;;;;;;;;11.71;29.23;100500.22;4489104;31;34092;-60
2022/03/25 03:35:44;;;;;;;;;;;;;;;11.93;28.91;100488.91;4491690;31;33872;-60
2022/03/25 03:38:12;;;;;;;;;;;;;;;11.81;29.29;100493.28;4486578;31;33332;-60
2022/03/25 03:40:40;;;;;;;;;;;;;;;11.93;28.41;100483.53;4486343;31;33901;-63
2022/03/25 03:43:10;;;;;;;;;;;;;;;11.71;28.82;100491.31;4485845;31;33281;-63
2022/03/25 03:45:38;;;;;;;;;;;;;;;10.90;30.54;100495.69;4488296;31;33313;-63
2022/03/25 03:48:06;;;;;;;;;;;;;;;11.07;29.85;100493.75;4478689;31;33352;-63
2022/03/25 03:50:35;;;;;;;;;;;;;;;10.95;30.33;100495.44;4476735;31;34447;-62
2022/03/25 03:53:03;;;;;;;;;;;;;;;11.10;29.71;100491.72;4483591;31;35245;-63
2022/03/25 03:55:36;;;;;;;;;;;;;;;10.36;31.06;100492.00;4481280;31;35000;-62
2022/03/25 03:58:24;;;;;;;;;;;;;;;10.45;31.08;100497.66;4482338;31;32576;-63
2022/03/25 04:00:52;;;;;;;;;;;;;;;10.37;31.95;100491.94;4484619;31;34285;-63
2022/03/25 04:03:22;;;;;;;;;;;;;;;10.53;31.09;100488.28;4481241;31;32515;-63
2022/03/25 04:05:50;;;;;;;;;;;;;;;10.58;31.36;100488.84;4482278;31;34280;-62
2022/03/25 04:08:18;;;;;;;;;;;;;;;10.90;30.62;100490.34;4480354;31;32917;-63
2022/03/25 04:10:47;;;;;;;;;;;;;;;11.15;29.72;100494.13;4480995;31;35506;-63
2022/03/25 04:13:16;;;;;;;;;;;;;;;11.24;29.87;100481.94;4477751;31;34349;-63
2022/03/25 04:15:45;;;;;;;;;;;;;;;11.35;29.41;100488.31;4479523;31;34166;-63
2022/03/25 04:18:16;;;;;;;;;;;;;;;10.95;30.41;100490.06;4486493;31;33376;-63
2022/03/25 04:20:45;;;;;;;;;;;;;;;11.34;29.54;100486.59;4482629;31;33534;-63
2022/03/25 04:23:20;;;;;;;;;;;;;;;11.43;29.34;100482.44;4482927;31;34469;-62
2022/03/25 04:25:48;;;;;;;;;;;;;;;11.27;30.29;100485.28;4486796;31;33254;-62
2022/03/25 04:28:18;;;;;;;;;;;;;;;11.39;29.73;100484.44;4490491;31;33224;-62
2022/03/25 04:30:48;;;;;;;;;;;;;;;11.37;30.08;100474.81;4487426;31;33707;-62
2022/03/25 04:33:18;;;;;;;;;;;;;;;11.30;30.10;100484.19;4484088;31;32887;-63
2022/03/25 04:35:47;;;;;;;;;;;;;;;11.46;29.83;100486.72;4487726;31;34366;-63
2022/03/25 04:38:17;;;;;;;;;;;;;;;11.58;29.75;100489.44;4480874;31;32650;-62
2022/03/25 04:40:46;;;;;;;;;;;;;;;11.42;30.48;100497.66;4488277;31;34902;-63
2022/03/25 04:43:20;;;;;;;;;;;;;;;11.53;29.98;100490.75;4486258;31;32876;-62
2022/03/25 04:46:02;;;;;;;;;;;;;;;11.60;29.60;100497.41;4482951;31;33684;-62
2022/03/25 04:48:30;;;;;;;;;;;;;;;11.06;30.96;100506.28;4488296;31;32372;-62
2022/03/25 04:50:59;;;;;;;;;;;;;;;11.55;29.70;100499.53;4483575;31;34257;-63
2022/03/25 04:53:27;;;;;;;;;;;;;;;11.25;30.55;100505.94;4476038;31;34025;-62
2022/03/25 04:55:55;;;;;;;;;;;;;;;11.27;30.52;100506.72;4484388;31;34341;-62
2022/03/25 04:58:24;;;;;;;;;;;;;;;11.34;30.09;100508.03;4489189;31;33069;-62
2022/03/25 05:00:52;;;;;;;;;;;;;;;11.28;30.37;100503.06;4489392;31;33775;-62
2022/03/25 05:03:22;;;;;;;;;;;;;;;11.31;29.95;100493.97;4488684;31;34224;-62
2022/03/25 05:05:51;;;;;;;;;;;;;;;11.38;29.69;100497.97;4488784;31;33086;-61
2022/03/25 05:08:19;;;;;;;;;;;;;;;11.29;29.87;100503.94;4486192;31;33434;-62
2022/03/25 05:10:48;;;;;;;;;;;;;;;11.35;29.91;100504.38;4487699;31;33707;-62
2022/03/25 05:13:28;;;;;;;;;;;;;;;11.15;30.65;100502.16;4482437;31;34246;-62
2022/03/25 05:15:56;;;;;;;;;;;;;;;11.10;30.69;100509.62;4477575;31;33041;-63
2022/03/25 05:18:25;;;;;;;;;;;;;;;10.57;32.31;100513.91;4478310;31;34781;-63
2022/03/25 05:20:53;;;;;;;;;;;;;;;10.87;32.56;100505.75;4480738;31;34435;-62
2022/03/25 05:23:23;;;;;;;;;;;;;;;11.53;30.76;100517.56;4488389;31;33037;-63
2022/03/25 05:25:51;;;;;;;;;;;;;;;11.85;30.79;100508.22;4486326;31;34515;-62
2022/03/25 05:28:19;;;;;;;;;;;;;;;12.09;30.53;100507.50;4485604;31;33073;-62
2022/03/25 05:30:49;;;;;;;;;;;;;;;12.24;30.29;100519.00;4481339;31;34378;-62
2022/03/25 05:33:17;;;;;;;;;;;;;;;12.68;29.46;100513.19;4496172;31;35468;-63
2022/03/25 05:35:46;;;;;;;;;;;;;;;13.20;28.00;100514.78;4489509;31;35208;-63
2022/03/25 05:38:14;;;;;;;;;;;;;;;13.42;27.66;100518.63;4487030;31;33094;-63
2022/03/25 05:40:43;;;;;;;;;;;;;;;13.42;28.45;100524.84;4487620;31;34145;-62
2022/03/25 05:43:12;;;;;;;;;;;;;;;13.74;28.08;100521.59;4484032;31;35035;-63
2022/03/25 05:45:40;;;;;;;;;;;;;;;14.24;26.96;100518.66;4480477;31;34260;-63
2022/03/25 05:48:08;;;;;;;;;;;;;;;14.24;26.83;100521.38;4485402;31;33381;-62
2022/03/25 05:50:36;;;;;;;;;;;;;;;14.10;27.18;100517.06;4488186;31;35043;-62
2022/03/25 05:53:05;;;;;;;;;;;;;;;14.02;27.56;100530.22;4486249;31;34254;-64
2022/03/25 05:55:39;;;;;;;;;;;;;;;13.96;27.81;100527.06;4482620;32;34520;-62
2022/03/25 05:58:07;;;;;;;;;;;;;;;14.10;27.51;100520.59;4484491;31;33591;-62
2022/03/25 06:00:36;;;;;;;;;;;;;;;14.16;27.23;100513.88;4484431;31;33891;-63
2022/03/25 06:03:05;;;;;;;;;;;;;;;14.12;27.27;100518.63;4481803;31;35311;-63
2022/03/25 06:05:34;;;;;;;;;;;;;;;14.02;27.99;100525.69;4475770;31;34196;-63
2022/03/25 06:08:02;;;;;;;;;;;;;;;14.04;27.86;100517.53;4484490;31;34420;-64
2022/03/25 06:10:31;;;;;;;;;;;;;;;14.02;27.93;100516.78;4488576;31;33893;-63
2022/03/25 06:12:59;;;;;;;;;;;;;;;14.02;28.15;100517.63;4482107;31;33149;-63
2022/03/25 06:15:28;;;;;;;;;;;;;;;14.16;28.31;100524.66;4484622;31;34324;-63
2022/03/25 06:17:57;;;;;;;;;;;;;;;14.48;27.14;100522.16;4479316;31;35129;-63
2022/03/25 06:20:28;;;;;;;;;;;;;;;14.51;27.65;100519.25;4480745;31;34211;-63
2022/03/25 06:22:56;;;;;;;;;;;;;;;14.56;27.70;100514.34;4479643;31;34259;-62
2022/03/25 06:25:25;;;;;;;;;;;;;;;14.55;27.59;100522.56;4493998;31;33974;-62
2022/03/25 06:27:54;;;;;;;;;;;;;;;14.83;27.02;100519.38;4484653;31;33545;-64
2022/03/25 06:30:24;;;;;;;;;;;;;;;15.08;27.00;100530.84;4485828;31;33527;-63
2022/03/25 06:32:52;;;;;;;;;;;;;;;15.10;26.70;100528.91;4479748;31;34728;-62
2022/03/25 06:35:21;;;;;;;;;;;;;;;15.40;26.23;100525.53;4485752;31;35048;-63
2022/03/25 06:37:49;;;;;;;;;;;;;;;15.91;26.35;100532.13;4486323;31;33233;-63
2022/03/25 06:40:19;;;;;;;;;;;;;;;16.76;24.98;100527.44;4494101;31;34317;-63
2022/03/25 06:42:47;;;;;;;;;;;;;;;17.27;24.62;100525.63;4481594;31;34348;-63
2022/03/25 06:45:16;;;;;;;;;;;;;;;18.48;23.28;100527.91;4491288;31;34692;-63
2022/03/25 06:47:46;;;;;;;;;;;;;;;19.76;21.82;100525.28;4484905;31;34590;-63
2022/03/25 06:50:19;;;;;;;;;;;;;;;19.40;22.23;100534.41;4469187;31;34296;-63
2022/03/25 06:52:48;;;;;;;;;;;;;;;18.74;22.94;100528.13;4477279;31;34850;-63
2022/03/25 06:55:16;;;;;;;;;;;;;;;18.08;24.44;100538.97;4482909;31;34359;-63
2022/03/25 06:57:49;;;;;;;;;;;;;;;18.18;24.06;100533.53;4482522;31;33325;-63
2022/03/25 07:00:18;;;;;;;;;;;;;;;18.04;24.01;100538.41;4486789;31;35083;-63
2022/03/25 07:02:46;;;;;;;;;;;;;;;18.05;23.31;100537.41;4486636;31;34823;-63
2022/03/25 07:05:15;;;;;;;;;;;;;;;17.98;22.54;100541.69;4479394;31;33341;-62
2022/03/25 07:07:44;;;;;;;;;;;;;;;17.36;23.37;100543.72;4484884;31;33475;-63
2022/03/25 07:10:12;;;;;;;;;;;;;;;17.46;23.01;100544.59;4481478;31;34147;-63
2022/03/25 07:12:42;;;;;;;;;;;;;;;17.47;22.92;100553.56;4478367;31;32992;-63
2022/03/25 07:15:10;;;;;;;;;;;;;;;17.27;23.00;100547.28;4479979;31;34759;-63
2022/03/25 07:17:38;;;;;;;;;;;;;;;16.77;23.70;100547.22;4479869;31;33220;-63
2022/03/25 07:20:07;;;;;;;;;;;;;;;16.10;24.13;100556.56;4479972;31;35772;-63
2022/03/25 07:22:36;;;;;;;;;;;;;;;16.33;24.04;100549.19;4482316;31;34582;-63
2022/03/25 07:25:04;;;;;;;;;;;;;;;15.91;24.62;100553.72;4480990;31;34980;-63
2022/03/25 07:27:33;;;;;;;;;;;;;;;16.03;24.79;100555.37;4478846;31;33452;-63
2022/03/25 07:30:02;;;;;;;;;;;;;;;16.06;24.75;100555.97;4480463;31;34176;-63
2022/03/25 07:32:30;;;;;;;;;;;;;;;15.69;24.83;100560.91;4487710;31;33907;-63
2022/03/25 07:34:59;;;;;;;;;;;;;;;16.46;24.51;100552.53;4487076;31;32921;-62
2022/03/25 07:37:32;;;;;;;;;;;;;;;15.76;24.76;100564.84;4485203;31;34526;-63
2022/03/25 07:40:06;;;;;;;;;;;;;;;15.63;25.54;100561.38;4482722;31;33958;-62
2022/03/25 07:42:37;;;;;;;;;;;;;;;16.25;25.00;100563.38;4371713;31;3655012;-63
2022/03/25 07:45:21;;;;;;;;;;;;;;;16.25;24.52;100560.69;4482267;31;33983;-63
2022/03/25 07:48:02;;;;;;;;;;;;;;;16.55;24.52;100559.00;4488800;31;33093;-63
2022/03/25 07:50:42;;;;;;;;;;;;;;;16.79;24.24;100566.00;4483022;31;34261;-63
2022/03/25 07:53:20;;;;;;;;;;;;;;;18.33;22.05;100575.44;4493021;31;32929;-63
2022/03/25 07:55:53;;;;;;;;;;;;;;;21.09;19.22;100559.59;4486979;31;34531;-63
2022/03/25 07:58:32;;;;;;;;;;;;;;;23.50;16.83;100560.13;4483531;31;33675;-63
2022/03/25 08:01:06;;;;;;;;;;;;;;;24.70;15.63;100567.78;4490897;31;32941;-63
2022/03/25 08:03:47;;;;;;;;;;;;;;;24.85;15.08;100550.34;4488276;31;33290;-64
2022/03/25 08:06:28;;;;;;;;;;;;;;;25.25;14.79;100556.41;4492041;31;32833;-62
2022/03/25 08:09:06;;;;;;;;;;;;;;;24.62;15.60;100555.03;4492970;31;32438;-61
2022/03/25 08:11:39;;;;;;;;;;;;;;;23.12;16.41;100559.09;4494205;31;33433;-61
2022/03/25 08:14:15;;;;;;;;;;;;;;;23.17;16.61;100552.06;4485994;31;34456;-61
2022/03/25 08:16:55;;;;;;;;;;;;;;;22.56;17.18;100554.41;4488409;31;34532;-61
2022/03/25 08:19:33;;;;;;;;;;;;;;;22.36;17.34;100558.53;4482462;31;32476;-61
2022/03/25 08:22:19;;;;;;;;;;;;;;;21.55;18.37;100557.41;4491307;31;34078;-61
2022/03/25 08:27:58;;;;;;;;;;;;;;;20.15;19.56;100554.84;4491399;31;33216;-61
2022/03/25 08:30:40;;;;;;;;;;;;;;;20.55;19.44;100545.34;4488591;31;32360;-63
2022/03/25 08:33:19;;;;;;;;;;;;;;;19.27;20.50;100554.59;4483762;31;33942;-64
2022/03/25 08:36:00;;;;;;;;;;;;;;;18.68;21.30;100560.38;4481810;31;33484;-63
2022/03/25 08:38:39;;;;;;;;;;;;;;;18.54;21.44;100550.88;4488363;31;33214;-63
2022/03/25 08:41:18;;;;;;;;;;;;;;;18.36;22.18;100556.16;4485415;31;33845;-63
2022/03/25 08:43:51;;;;;;;;;;;;;;;18.21;21.98;100561.19;4487067;31;33250;-63
2022/03/25 08:46:27;;;;;;;;;;;;;;;18.48;21.90;100560.44;4482936;31;34606;-63
2022/03/25 08:49:07;;;;;;;;;;;;;;;18.08;21.93;100557.94;4486057;31;33237;-63
2022/03/25 08:51:50;;;;;;;;;;;;;;;18.65;21.83;100561.56;4487167;31;32292;-63
2022/03/25 08:54:32;;;;;;;;;;;;;;;19.14;21.14;100559.53;4494999;31;34477;-63
2022/03/25 08:57:10;;;;;;;;;;;;;;;19.18;21.65;100562.81;4496270;31;33384;-63
2022/03/25 08:59:48;;;;;;;;;;;;;;;19.08;20.80;100560.97;4494254;31;33484;-64
2022/03/25 09:02:34;;;;;;;;;;;;;;;18.66;21.44;100560.53;4482042;31;34449;-63
2022/03/25 09:05:18;;;;;;;;;;;;;;;18.76;21.47;100564.09;4486234;31;34252;-63
2022/03/25 09:08:00;;;;;;;;;;;;;;;19.42;20.70;100562.22;4483992;31;34186;-63
2022/03/25 09:10:35;;;;;;;;;;;;;;;19.54;20.65;100567.28;4491188;31;34446;-63
2022/03/25 09:13:18;;;;;;;;;;;;;;;19.14;20.71;100553.25;4488756;31;32616;-63
2022/03/25 09:16:03;;;;;;;;;;;;;;;19.22;20.94;100556.91;4484508;31;32764;-63
2022/03/25 09:18:46;;;;;;;;;;;;;;;20.18;20.33;100553.69;4482742;31;33345;-63
2022/03/25 09:21:27;;;;;;;;;;;;;;;20.68;18.97;100556.66;4491506;31;33298;-63
2022/03/25 09:24:14;;;;;;;;;;;;;;;20.33;19.59;100556.72;4484800;31;32647;-63
2022/03/25 09:26:55;;;;;;;;;;;;;;;20.28;19.71;100554.44;4495308;31;34179;-63
2022/03/25 09:29:33;;;;;;;;;;;;;;;20.92;19.34;100546.91;4493180;31;33030;-63
2022/03/25 09:32:10;;;;;;;;;;;;;;;19.77;20.43;100545.16;4490695;31;32300;-63
2022/03/25 09:35:09;;;;;;;;;;;;;;;20.44;19.76;100548.28;4488375;31;32536;-63
2022/03/25 09:37:50;;;;;;;;;;;;;;;20.68;19.34;100544.91;4485162;31;33227;-63
2022/03/25 09:40:28;;;;;;;;;;;;;;;20.53;19.47;100547.34;4485445;31;34219;-64
2022/03/25 09:43:11;;;;;;;;;;;;;;;19.94;19.71;100540.75;4492665;31;34555;-63
2022/03/25 09:45:54;;;;;;;;;;;;;;;20.94;19.44;100545.72;4481790;31;33266;-63
2022/03/25 09:48:31;;;;;;;;;;;;;;;21.29;19.20;100546.56;4489338;31;32554;-63
2022/03/25 09:51:32;;;;;;;;;;;;;;;21.10;19.67;100550.41;4482579;31;34134;-63
2022/03/25 09:54:16;;;;;;;;;;;;;;;21.48;19.65;100544.63;4486378;31;33523;-64
2022/03/25 09:56:54;;;;;;;;;;;;;;;21.43;18.69;100544.25;4490876;31;32203;-63
2022/03/25 09:59:26;;;;;;;;;;;;;;;21.68;18.93;100537.00;4490526;31;33249;-62
2022/03/25 10:01:58;;;;;;;;;;;;;;;21.79;18.53;100523.88;4486434;31;33436;-62
2022/03/25 10:04:55;;;;;;;;;;;;;;;22.09;18.16;100519.66;4490322;31;34299;-63
2022/03/25 10:07:33;;;;;;;;;;;;;;;22.65;17.82;100525.25;4489714;31;34293;-63
2022/03/25 10:10:17;;;;;;;;;;;;;;;22.16;17.57;100522.59;4483826;31;34129;-63
2022/03/25 10:12:46;;;;;;;;;;;;;;;21.47;18.49;100510.22;4480263;31;33408;-64
2022/03/25 10:15:23;;;;;;;;;;;;;;;22.45;17.84;100508.41;4481931;31;33528;-63
2022/03/25 10:17:52;;;;;;;;;;;;;;;22.14;18.75;100507.38;4484286;31;34656;-63
2022/03/25 10:20:22;;;;;;;;;;;;;;;22.16;17.93;100498.06;4488191;31;34188;-59
2022/03/25 10:22:59;;;;;;;;;;;;;;;21.85;17.92;100506.03;4485959;31;33233;-60
2022/03/25 10:25:49;;;;;;;;;;;;;;;22.62;17.40;100497.47;4478591;31;34452;-60
2022/03/25 10:28:27;;;;;;;;;;;;;;;22.48;17.90;100499.88;4482351;31;33493;-63
2022/03/25 10:31:01;;;;;;;;;;;;;;;22.61;17.16;100490.31;4489426;31;34126;-62
2022/03/25 10:33:47;;;;;;;;;;;;;;;23.19;17.51;100486.34;4481741;31;31304;-62
2022/03/25 10:36:25;;;;;;;;;;;;;;;23.78;16.75;100483.09;4481434;31;33759;-62
2022/03/25 10:39:07;;;;;;;;;;;;;;;24.01;16.08;100485.81;4485359;31;33451;-62
2022/03/25 10:41:37;;;;;;;;;;;;;;;23.68;16.02;100478.72;4481969;31;35463;-64
2022/03/25 10:44:10;;;;;;;;;;;;;;;23.34;16.64;100483.69;4481051;31;34267;-62
2022/03/25 10:46:53;;;;;;;;;;;;;;;24.21;15.67;100480.69;4481195;31;34784;-62
2022/03/25 10:49:30;;;;;;;;;;;;;;;23.66;15.97;100480.78;4479773;31;32366;-63
2022/03/25 10:52:04;;;;;;;;;;;;;;;24.01;15.73;100477.59;4471341;31;32704;-63
2022/03/25 10:54:42;;;;;;;;;;;;;;;24.35;15.60;100469.75;4477704;31;32534;-63
2022/03/25 10:57:20;;;;;;;;;;;;;;;24.22;15.85;100472.28;4485178;31;32898;-63
2022/03/25 10:59:59;;;;;;;;;;;;;;;24.48;16.23;100468.31;4486342;31;33490;-63
2022/03/25 11:02:33;;;;;;;;;;;;;;;24.80;15.10;100467.91;4484323;31;34037;-62
2022/03/25 11:05:05;;;;;;;;;;;;;;;24.07;15.80;100461.31;4484121;31;35820;-63
2022/03/25 11:07:46;;;;;;;;;;;;;;;23.97;16.12;100465.34;4486303;31;33200;-63
2022/03/25 11:10:20;;;;;;;;;;;;;;;24.03;16.45;100462.72;4486407;31;32256;-63
2022/03/25 11:12:51;;;;;;;;;;;;;;;24.10;16.03;100458.19;4481452;31;33134;-62
2022/03/25 11:15:21;;;;;;;;;;;;;;;24.10;16.41;100460.94;4485510;31;33817;-62
2022/03/25 11:17:52;;;;;;;;;;;;;;;24.30;16.01;100452.19;4483887;31;35085;-64
2022/03/25 11:20:27;;;;;;;;;;;;;;;24.18;16.14;100449.09;4483555;31;32154;-62
2022/03/25 11:23:12;;;;;;;;;;;;;;;24.07;16.17;100444.91;4481772;31;34291;-63
2022/03/25 11:25:41;;;;;;;;;;;;;;;24.04;16.90;100439.81;4488152;31;34328;-63
2022/03/25 11:28:13;;;;;;;;;;;;;;;24.21;16.01;100440.50;4490821;31;33838;-63
2022/03/25 11:30:43;;;;;;;;;;;;;;;24.33;16.84;100436.28;4473116;31;32435;-64
2022/03/25 11:33:14;;;;;;;;;;;;;;;24.38;15.72;100432.97;4484865;31;33121;-64
2022/03/25 11:35:45;;;;;;;;;;;;;;;24.77;15.93;100438.19;4486317;31;34652;-62
2022/03/25 11:38:18;;;;;;;;;;;;;;;24.79;15.33;100436.13;4485397;31;34591;-64
2022/03/25 11:40:46;;;;;;;;;;;;;;;24.86;15.43;100426.09;4472473;31;33968;-62
2022/03/25 11:43:20;;;;;;;;;;;;;;;24.32;16.02;100426.38;4484695;31;36160;-62
2022/03/25 11:46:00;;;;;;;;;;;;;;;24.56;15.96;100421.69;4484987;31;35226;-63
2022/03/25 11:48:28;;;;;;;;;;;;;;;24.53;16.72;100424.81;4489567;31;35511;-62
2022/03/25 11:50:56;;;;;;;;;;;;;;;24.62;16.64;100418.19;4489729;31;32283;-63
2022/03/25 11:53:23;;;;;;;;;;;;;;;24.39;15.77;100412.78;4473937;31;34210;-62
2022/03/25 11:56:07;;;;;;;;;;;;;;;24.67;15.81;100410.25;4486052;31;33606;-62
2022/03/25 11:58:36;;;;;;;;;;;;;;;23.64;16.91;100410.94;4486925;31;35152;-63
2022/03/25 12:01:11;;;;;;;;;;;;;;;23.79;16.88;100409.13;4483006;31;34373;-63
2022/03/25 12:03:40;;;;;;;;;;;;;;;23.82;16.49;100408.75;4482506;31;35391;-63
2022/03/25 12:06:08;;;;;;;;;;;;;;;24.02;16.47;100405.50;4484335;31;34184;-62
2022/03/25 12:08:36;;;;;;;;;;;;;;;24.47;17.04;100403.69;4485644;31;34388;-63
2022/03/25 12:11:08;;;;;;;;;;;;;;;23.30;17.75;100405.88;4482958;31;33420;-62
2022/03/25 12:13:51;;;;;;;;;;;;;;;23.79;16.94;100398.19;4487016;31;34953;-62
2022/03/25 12:16:38;;;;;;;;;;;;;;;24.43;16.35;100396.87;4486465;31;33693;-63
2022/03/25 12:19:06;;;;;;;;;;;;;;;24.56;15.80;100388.88;4486444;31;32663;-62
2022/03/25 12:21:33;;;;;;;;;;;;;;;23.98;16.17;100391.34;4476302;31;34556;-62
2022/03/25 12:24:02;;;;;;;;;;;;;;;23.94;16.44;100395.47;4493102;31;34145;-62
2022/03/25 12:26:33;;;;;;;;;;;;;;;23.78;16.05;100396.47;4483870;31;34179;-63
2022/03/25 12:29:01;;;;;;;;;;;;;;;23.32;16.89;100395.66;4488414;31;34726;-63
2022/03/25 12:31:29;;;;;;;;;;;;;;;23.78;16.32;100382.81;4492877;31;34152;-62
2022/03/25 12:33:58;;;;;;;;;;;;;;;23.86;15.96;100384.62;4491461;31;34084;-62
2022/03/25 12:36:28;;;;;;;;;;;;;;;23.29;16.44;100391.38;4486411;31;34008;-62
2022/03/25 12:38:55;;;;;;;;;;;;;;;23.33;15.69;100381.78;4488259;31;35297;-62
2022/03/25 12:41:27;;;;;;;;;;;;;;;23.69;15.83;100381.19;4489351;31;33548;-62
2022/03/25 12:44:15;;;;;;;;;;;;;;;23.00;16.59;100383.91;4485749;31;33666;-62
2022/03/25 12:46:43;;;;;;;;;;;;;;;22.84;16.26;100365.72;4489832;31;35611;-62
2022/03/25 12:49:11;;;;;;;;;;;;;;;22.42;16.95;100371.53;4493068;31;34486;-62
2022/03/25 12:51:38;;;;;;;;;;;;;;;22.83;16.87;100377.66;4484617;31;34594;-63
2022/03/25 12:54:16;;;;;;;;;;;;;;;23.20;15.78;100368.75;4484272;31;32630;-62
2022/03/25 12:57:00;;;;;;;;;;;;;;;22.97;16.45;100362.41;4483275;31;32751;-62
2022/03/25 12:59:55;;;;;;;;;;;;;;;22.83;16.44;100363.16;4485727;31;35428;-62
2022/03/25 13:02:30;;;;;;;;;;;;;;;22.80;16.64;100361.66;4484561;31;31988;-62
2022/03/25 13:05:07;;;;;;;;;;;;;;;22.73;17.03;100357.94;4484129;31;34716;-62